createdAt,value
2022-12-07T00:01:09.339Z,17.60
2022-12-07T00:03:37.397Z,17.60
2022-12-07T00:06:05.875Z,17.60
2022-12-07T00:08:33.847Z,17.50
2022-12-07T00:11:04.660Z,17.50
2022-12-07T00:13:32.200Z,17.50
2022-12-07T00:16:03.779Z,17.40
2022-12-07T00:18:30.883Z,17.40
2022-12-07T00:21:02.279Z,17.40
2022-12-07T00:23:29.012Z,17.30
2022-12-07T00:25:55.739Z,17.30
2022-12-07T00:28:22.499Z,17.30
2022-12-07T00:30:49.203Z,17.30
2022-12-07T00:33:15.924Z,17.20
2022-12-07T00:35:42.565Z,17.20
2022-12-07T00:38:09.245Z,17.20
2022-12-07T00:40:35.910Z,17.20
2022-12-07T00:43:02.637Z,17.10
2022-12-07T00:45:29.396Z,17.10
2022-12-07T00:47:56.147Z,17.10
2022-12-07T00:50:22.903Z,17.10
2022-12-07T00:52:49.639Z,17.00
2022-12-07T00:55:16.320Z,17.00
2022-12-07T00:57:42.960Z,17.00
2022-12-07T01:00:10.301Z,17.00
2022-12-07T01:02:36.999Z,17.00
2022-12-07T01:05:03.762Z,16.90
2022-12-07T01:07:30.414Z,16.90
2022-12-07T01:09:57.147Z,16.90
2022-12-07T01:12:23.919Z,16.90
2022-12-07T01:14:50.596Z,16.90
2022-12-07T01:17:17.281Z,16.90
2022-12-07T01:19:44.059Z,16.80
2022-12-07T01:22:10.776Z,16.80
2022-12-07T01:24:37.519Z,16.80
2022-12-07T01:27:04.190Z,16.80
2022-12-07T01:29:30.958Z,16.70
2022-12-07T01:31:57.645Z,16.70
2022-12-07T01:34:24.358Z,16.70
2022-12-07T01:36:51.055Z,16.70
2022-12-07T01:39:17.709Z,16.60
2022-12-07T01:41:44.717Z,16.60
2022-12-07T01:44:22.482Z,16.60
2022-12-07T01:46:56.326Z,16.60
2022-12-07T01:49:34.671Z,16.50
2022-12-07T01:52:04.468Z,16.50
2022-12-07T01:54:32.259Z,16.50
2022-12-07T01:57:00.329Z,16.50
2022-12-07T01:59:27.544Z,16.50
2022-12-07T02:01:56.292Z,16.40
2022-12-07T02:04:23.448Z,16.40
2022-12-07T02:06:51.410Z,16.40
2022-12-07T02:09:18.425Z,16.40
2022-12-07T02:11:45.294Z,16.40
2022-12-07T02:14:12.196Z,16.40
2022-12-07T02:17:03.788Z,16.40
2022-12-07T02:19:33.253Z,16.30
2022-12-07T02:22:25.388Z,16.30
2022-12-07T02:25:14.001Z,16.30
2022-12-07T02:28:02.221Z,16.30
2022-12-07T02:30:34.475Z,16.20
2022-12-07T02:33:04.116Z,16.20
2022-12-07T02:36:02.674Z,16.20
2022-12-07T02:38:36.030Z,16.20
2022-12-07T02:41:08.786Z,16.20
2022-12-07T02:43:46.064Z,16.10
2022-12-07T02:46:21.660Z,16.10
2022-12-07T02:49:08.622Z,16.10
2022-12-07T02:51:39.946Z,16.00
2022-12-07T02:54:14.411Z,16.00
2022-12-07T02:56:50.904Z,16.00
2022-12-07T02:59:36.512Z,16.00
2022-12-07T03:02:06.011Z,16.00
2022-12-07T03:04:54.437Z,15.90
2022-12-07T03:07:47.117Z,16.00
2022-12-07T03:10:29.772Z,16.00
2022-12-07T03:13:02.541Z,15.90
2022-12-07T03:15:33.176Z,15.90
2022-12-07T03:18:02.236Z,15.80
2022-12-07T03:20:32.270Z,15.90
2022-12-07T03:23:00.422Z,15.80
2022-12-07T03:25:27.841Z,15.80
2022-12-07T03:28:06.642Z,15.80
2022-12-07T03:30:59.148Z,15.80
2022-12-07T03:33:32.303Z,15.70
2022-12-07T03:36:06.368Z,15.80
2022-12-07T03:38:59.635Z,15.70
2022-12-07T03:41:30.450Z,15.70
2022-12-07T03:43:58.380Z,15.70
2022-12-07T03:46:44.101Z,15.70
2022-12-07T03:49:31.272Z,15.70
2022-12-07T03:52:29.342Z,15.60
2022-12-07T03:55:05.600Z,15.70
2022-12-07T03:57:34.544Z,15.60
2022-12-07T04:00:02.314Z,15.60
2022-12-07T04:02:39.544Z,15.60
2022-12-07T04:05:06.998Z,15.60
2022-12-07T04:07:33.956Z,15.60
2022-12-07T04:10:01.264Z,15.60
2022-12-07T04:12:28.292Z,15.60
2022-12-07T04:14:54.992Z,15.50
2022-12-07T04:17:21.702Z,15.50
2022-12-07T04:19:48.350Z,15.50
2022-12-07T04:22:15.032Z,15.50
2022-12-07T04:24:41.754Z,15.50
2022-12-07T04:27:08.469Z,15.50
2022-12-07T04:29:35.314Z,15.50
2022-12-07T04:32:02.020Z,15.50
2022-12-07T04:34:28.821Z,15.50
2022-12-07T04:36:55.569Z,15.40
2022-12-07T04:39:30.694Z,15.40
2022-12-07T04:41:58.110Z,15.40
2022-12-07T04:44:26.287Z,15.40
2022-12-07T04:46:53.835Z,15.40
2022-12-07T04:49:20.971Z,15.40
2022-12-07T04:51:48.144Z,15.40
2022-12-07T04:54:16.321Z,15.40
2022-12-07T04:56:43.899Z,15.40
2022-12-07T04:59:12.042Z,15.40
2022-12-07T05:01:38.763Z,15.30
2022-12-07T05:04:06.035Z,15.30
2022-12-07T05:06:32.867Z,15.30
2022-12-07T05:08:59.502Z,15.30
2022-12-07T05:11:41.675Z,15.30
2022-12-07T05:14:17.581Z,15.30
2022-12-07T05:16:46.005Z,15.30
2022-12-07T05:19:13.212Z,15.30
2022-12-07T05:21:40.267Z,15.30
2022-12-07T05:24:08.273Z,15.30
2022-12-07T05:26:35.460Z,15.20
2022-12-07T05:29:02.457Z,15.20
2022-12-07T05:31:29.429Z,15.20
2022-12-07T05:33:56.286Z,15.20
2022-12-07T05:36:24.034Z,15.20
2022-12-07T05:38:50.704Z,15.20
2022-12-07T05:41:37.949Z,15.20
2022-12-07T05:44:05.624Z,15.20
2022-12-07T05:46:32.600Z,15.20
2022-12-07T05:48:59.297Z,15.10
2022-12-07T05:51:25.997Z,15.10
2022-12-07T05:53:52.735Z,15.10
2022-12-07T05:56:19.525Z,15.10
2022-12-07T05:59:04.931Z,15.10
2022-12-07T06:01:31.679Z,15.10
2022-12-07T06:03:58.438Z,15.10
2022-12-07T06:06:25.183Z,15.10
2022-12-07T06:08:52.040Z,15.10
2022-12-07T06:11:37.157Z,15.00
2022-12-07T06:14:03.830Z,15.10
2022-12-07T06:16:30.691Z,15.00
2022-12-07T06:18:57.395Z,15.00
2022-12-07T06:21:24.177Z,15.00
2022-12-07T06:23:50.904Z,15.00
2022-12-07T06:26:17.619Z,15.00
2022-12-07T06:28:44.365Z,15.00
2022-12-07T06:31:14.075Z,15.00
2022-12-07T06:33:41.538Z,15.00
2022-12-07T06:36:08.953Z,15.00
2022-12-07T06:38:35.984Z,15.00
2022-12-07T06:41:02.882Z,15.00
2022-12-07T06:43:30.351Z,14.90
2022-12-07T06:45:57.401Z,14.90
2022-12-07T06:48:25.360Z,14.90
2022-12-07T06:50:54.979Z,14.90
2022-12-07T06:53:23.383Z,14.90
2022-12-07T06:55:50.180Z,14.90
2022-12-07T06:58:17.523Z,14.90
2022-12-07T07:00:45.213Z,14.90
2022-12-07T07:03:11.974Z,14.90
2022-12-07T07:05:38.629Z,14.80
2022-12-07T07:08:21.754Z,14.80
2022-12-07T07:10:49.370Z,14.80
2022-12-07T07:13:16.207Z,14.80
2022-12-07T07:15:43.182Z,14.80
2022-12-07T07:18:09.898Z,14.80
2022-12-07T07:20:37.395Z,14.80
2022-12-07T07:23:04.106Z,14.80
2022-12-07T07:25:31.035Z,14.70
2022-12-07T07:27:57.774Z,14.80
2022-12-07T07:30:25.127Z,14.80
2022-12-07T07:32:51.922Z,14.70
2022-12-07T07:35:18.708Z,14.70
2022-12-07T07:37:45.438Z,14.70
2022-12-07T07:40:12.560Z,14.70
2022-12-07T07:42:39.225Z,14.70
2022-12-07T07:45:06.469Z,14.70
2022-12-07T07:47:33.231Z,14.70
2022-12-07T07:50:00.051Z,14.70
2022-12-07T07:52:27.069Z,14.70
2022-12-07T07:54:53.959Z,14.70
2022-12-07T07:57:20.864Z,14.70
2022-12-07T07:59:47.564Z,14.70
2022-12-07T08:02:20.299Z,14.70
2022-12-07T08:04:47.491Z,14.60
2022-12-07T08:07:15.471Z,14.60
2022-12-07T08:09:42.682Z,14.60
2022-12-07T08:12:09.485Z,14.60
2022-12-07T08:14:40.035Z,14.60
2022-12-07T08:17:06.757Z,14.60
2022-12-07T08:19:34.201Z,14.60
2022-12-07T08:22:00.861Z,14.60
2022-12-07T08:24:27.717Z,14.60
2022-12-07T08:26:54.589Z,14.60
2022-12-07T08:29:21.745Z,14.60
2022-12-07T08:31:48.480Z,14.60
2022-12-07T08:34:15.294Z,14.60
2022-12-07T08:36:42.040Z,14.50
2022-12-07T08:39:30.914Z,14.50
2022-12-07T08:41:55.367Z,14.50
2022-12-07T08:44:22.643Z,14.50
2022-12-07T08:46:56.375Z,14.50
2022-12-07T08:49:28.647Z,14.50
2022-12-07T08:51:56.383Z,14.50
2022-12-07T08:54:23.516Z,14.50
2022-12-07T08:56:57.123Z,14.50
2022-12-07T08:59:26.304Z,14.50
2022-12-07T09:01:53.538Z,14.50
2022-12-07T09:04:21.648Z,14.50
2022-12-07T09:06:48.879Z,14.50
2022-12-07T09:09:15.944Z,14.40
2022-12-07T09:11:43.034Z,14.40
2022-12-07T09:14:10.031Z,14.40
2022-12-07T09:16:36.877Z,14.40
2022-12-07T09:19:04.830Z,14.40
2022-12-07T09:21:31.824Z,14.40
2022-12-07T09:23:58.563Z,14.40
2022-12-07T09:26:25.276Z,14.40
2022-12-07T09:28:51.937Z,14.40
2022-12-07T09:31:23.776Z,14.40
2022-12-07T09:33:59.816Z,14.40
2022-12-07T09:36:27.905Z,14.40
2022-12-07T09:38:54.680Z,14.40
2022-12-07T09:41:23.472Z,14.40
2022-12-07T09:43:50.780Z,14.40
2022-12-07T09:46:20.279Z,14.40
2022-12-07T09:48:48.432Z,14.40
2022-12-07T09:51:25.649Z,14.30
2022-12-07T09:53:55.691Z,14.30
2022-12-07T09:56:23.843Z,14.30
2022-12-07T09:58:52.794Z,14.30
2022-12-07T10:01:22.073Z,14.30
2022-12-07T10:04:17.797Z,14.30
2022-12-07T10:06:44.659Z,14.30
2022-12-07T10:09:12.984Z,14.30
2022-12-07T10:12:09.889Z,14.30
2022-12-07T10:17:39.683Z,14.30
2022-12-07T10:20:29.423Z,14.30
2022-12-07T10:23:05.530Z,14.30
2022-12-07T10:25:39.220Z,14.30
2022-12-07T10:28:08.716Z,14.30
2022-12-07T10:31:15.276Z,14.30
2022-12-07T10:34:00.841Z,14.30
2022-12-07T10:36:36.865Z,14.30
2022-12-07T10:39:15.695Z,14.40
2022-12-07T10:42:03.692Z,14.30
2022-12-07T10:44:32.469Z,14.40
2022-12-07T10:47:09.361Z,14.40
2022-12-07T10:50:06.176Z,14.40
2022-12-07T10:52:47.038Z,14.40
2022-12-07T10:55:32.301Z,14.40
2022-12-07T10:58:42.685Z,14.40
2022-12-07T11:01:34.725Z,14.40
2022-12-07T11:04:29.117Z,14.40
2022-12-07T11:07:21.938Z,14.40
2022-12-07T11:10:09.639Z,14.40
2022-12-07T11:12:59.455Z,14.40
2022-12-07T11:16:13.922Z,14.40
2022-12-07T11:18:52.398Z,14.40
2022-12-07T11:21:32.682Z,14.40
2022-12-07T11:24:12.760Z,14.40
2022-12-07T11:27:03.952Z,14.40
2022-12-07T11:29:52.584Z,14.40
2022-12-07T11:32:51.313Z,14.40
2022-12-07T11:35:18.075Z,14.40
2022-12-07T11:37:46.767Z,14.40
2022-12-07T11:40:31.576Z,14.40
2022-12-07T11:43:20.197Z,14.40
2022-12-07T11:46:05.511Z,14.40
2022-12-07T11:48:35.244Z,14.40
2022-12-07T11:51:03.731Z,14.40
2022-12-07T11:53:38.624Z,14.40
2022-12-07T11:56:15.729Z,14.40
2022-12-07T11:58:50.936Z,14.40
2022-12-07T12:01:53.305Z,14.40
2022-12-07T12:04:38.777Z,14.40
2022-12-07T12:10:01.669Z,14.40
2022-12-07T12:16:37.855Z,14.40
2022-12-07T12:19:16.821Z,14.40
2022-12-07T12:21:44.515Z,14.40
2022-12-07T12:24:17.866Z,14.40
2022-12-07T12:26:52.744Z,14.40
2022-12-07T12:29:36.555Z,14.40
2022-12-07T12:32:25.142Z,14.40
2022-12-07T12:34:54.766Z,14.40
2022-12-07T12:37:43.091Z,14.40
2022-12-07T12:40:15.761Z,14.40
2022-12-07T12:42:56.582Z,14.40
2022-12-07T12:45:25.380Z,14.40
2022-12-07T12:47:54.880Z,14.40
2022-12-07T12:50:35.909Z,14.40
2022-12-07T12:53:14.286Z,14.40
2022-12-07T12:55:44.051Z,14.40
2022-12-07T12:58:19.976Z,14.30
2022-12-07T13:00:48.445Z,14.30
2022-12-07T13:03:29.935Z,14.30
2022-12-07T13:06:18.197Z,14.30
2022-12-07T13:08:45.139Z,14.30
2022-12-07T13:11:34.249Z,14.30
2022-12-07T13:14:38.288Z,14.30
2022-12-07T13:17:05.154Z,14.30
2022-12-07T13:19:44.189Z,14.30
2022-12-07T13:22:50.265Z,14.30
2022-12-07T13:25:32.556Z,14.30
2022-12-07T13:28:08.959Z,14.30
2022-12-07T13:31:02.161Z,14.30
2022-12-07T13:33:29.881Z,14.30
2022-12-07T13:35:57.640Z,14.30
2022-12-07T13:38:36.697Z,14.30
2022-12-07T13:41:16.618Z,14.30
2022-12-07T13:43:51.012Z,14.30
2022-12-07T13:46:22.154Z,14.30
2022-12-07T13:48:51.224Z,14.30
2022-12-07T13:51:35.837Z,14.30
2022-12-07T13:54:12.982Z,14.20
2022-12-07T13:56:42.393Z,14.30
2022-12-07T13:59:24.179Z,14.20
2022-12-07T14:01:52.249Z,14.30
2022-12-07T14:04:35.658Z,14.20
2022-12-07T14:07:26.977Z,14.20
2022-12-07T14:10:07.606Z,14.20
2022-12-07T14:12:37.587Z,14.20
2022-12-07T14:15:10.108Z,14.20
2022-12-07T14:17:37.011Z,14.20
2022-12-07T14:20:05.871Z,14.20
2022-12-07T14:22:37.148Z,14.20
2022-12-07T14:25:22.627Z,14.20
2022-12-07T14:28:01.297Z,14.20
2022-12-07T14:30:30.515Z,14.20
2022-12-07T14:33:02.320Z,14.20
2022-12-07T14:35:29.890Z,14.20
2022-12-07T14:37:56.713Z,14.20
2022-12-07T14:40:26.068Z,14.20
2022-12-07T14:42:58.089Z,14.20
2022-12-07T14:45:24.836Z,14.20
2022-12-07T14:53:37.831Z,14.20
2022-12-07T14:56:06.588Z,14.10
2022-12-07T14:58:33.600Z,14.10
2022-12-07T15:01:01.056Z,14.10
2022-12-07T15:03:27.908Z,14.10
2022-12-07T15:05:54.684Z,14.10
2022-12-07T15:08:21.445Z,14.10
2022-12-07T15:10:48.320Z,14.10
2022-12-07T15:13:33.618Z,14.10
2022-12-07T15:16:01.082Z,14.10
2022-12-07T15:18:27.941Z,14.10
2022-12-07T15:20:54.599Z,14.10
2022-12-07T15:23:21.539Z,14.10
2022-12-07T15:25:49.584Z,14.10
2022-12-07T15:28:16.806Z,14.10
2022-12-07T15:30:44.976Z,14.10
2022-12-07T15:33:12.937Z,14.00
2022-12-07T15:35:43.867Z,14.00
2022-12-07T15:38:10.876Z,14.00
2022-12-07T15:40:37.637Z,14.00
2022-12-07T15:43:04.776Z,14.00
2022-12-07T15:45:31.640Z,14.00
2022-12-07T15:50:45.763Z,14.00
2022-12-07T15:53:12.527Z,14.00
2022-12-07T15:55:42.382Z,14.00
2022-12-07T15:58:09.252Z,14.00
2022-12-07T16:00:35.916Z,14.00
2022-12-07T16:03:02.693Z,13.90
2022-12-07T16:05:29.521Z,13.90
2022-12-07T16:07:56.228Z,13.90
2022-12-07T16:10:23.112Z,13.90
2022-12-07T16:12:49.815Z,13.90
2022-12-07T16:15:21.501Z,13.90
2022-12-07T16:17:51.878Z,13.90
2022-12-07T16:20:18.705Z,14.00
2022-12-07T16:22:45.415Z,14.00
2022-12-07T16:25:12.132Z,14.10
2022-12-07T16:27:38.935Z,14.20
2022-12-07T16:30:06.714Z,14.40
2022-12-07T16:32:34.328Z,14.50
2022-12-07T16:35:01.421Z,14.60
2022-12-07T16:37:28.520Z,14.70
2022-12-07T16:39:55.455Z,14.90
2022-12-07T16:42:22.263Z,15.00
2022-12-07T16:44:49.040Z,15.10
2022-12-07T16:47:15.865Z,15.20
2022-12-07T16:49:44.018Z,15.40
2022-12-07T16:52:26.242Z,15.50
2022-12-07T16:54:53.018Z,15.60
2022-12-07T16:57:23.369Z,15.70
2022-12-07T16:59:51.983Z,15.80
2022-12-07T17:02:19.385Z,16.00
2022-12-07T17:04:46.114Z,16.00
2022-12-07T17:07:13.311Z,16.10
2022-12-07T17:09:39.992Z,16.20
2022-12-07T17:12:07.624Z,16.30
2022-12-07T17:14:53.105Z,16.40
2022-12-07T17:17:20.046Z,16.50
2022-12-07T17:19:47.586Z,16.60
2022-12-07T17:22:14.376Z,16.60
2022-12-07T17:24:41.185Z,16.70
2022-12-07T17:27:07.930Z,16.70
2022-12-07T17:29:34.881Z,16.80
2022-12-07T17:32:01.625Z,16.80
2022-12-07T17:34:28.381Z,16.80
2022-12-07T17:36:55.773Z,16.80
2022-12-07T17:39:22.689Z,16.80
2022-12-07T17:42:07.918Z,16.80
2022-12-07T17:44:34.709Z,16.90
2022-12-07T17:47:03.774Z,16.90
2022-12-07T17:49:30.825Z,17.00
2022-12-07T17:52:16.497Z,17.00
2022-12-07T17:54:43.466Z,17.10
2022-12-07T17:57:10.435Z,17.10
2022-12-07T17:59:37.260Z,17.20
2022-12-07T18:02:04.034Z,17.30
2022-12-07T18:04:30.805Z,17.40
2022-12-07T18:06:57.603Z,17.50
2022-12-07T18:09:24.751Z,17.60
2022-12-07T18:11:51.536Z,17.80
2022-12-07T18:14:18.359Z,17.90
2022-12-07T18:16:45.218Z,18.10
2022-12-07T18:19:17.174Z,18.30
2022-12-07T18:21:44.547Z,18.50
2022-12-07T18:24:14.875Z,18.70
2022-12-07T18:26:42.789Z,18.90
2022-12-07T18:29:13.714Z,19.00
2022-12-07T18:31:40.719Z,19.20
2022-12-07T18:34:12.195Z,19.30
2022-12-07T18:36:42.184Z,19.40
2022-12-07T18:39:09.540Z,19.50
2022-12-07T18:41:36.315Z,19.60
2022-12-07T18:44:05.148Z,19.70
2022-12-07T18:46:33.303Z,19.80
2022-12-07T18:49:00.728Z,19.90
2022-12-07T18:51:32.387Z,19.90
2022-12-07T18:54:01.279Z,20.00
2022-12-07T18:56:28.793Z,20.00
2022-12-07T18:59:16.868Z,20.10
2022-12-07T19:01:45.764Z,20.10
2022-12-07T19:04:13.088Z,20.10
2022-12-07T19:06:42.807Z,20.10
2022-12-07T19:09:10.044Z,20.20
2022-12-07T19:11:52.461Z,20.20
2022-12-07T19:14:31.932Z,20.20
2022-12-07T19:17:02.325Z,20.20
2022-12-07T19:19:32.613Z,20.20
2022-12-07T19:21:59.916Z,20.20
2022-12-07T19:24:27.680Z,20.10
2022-12-07T19:26:54.572Z,20.10
2022-12-07T19:29:21.659Z,20.10
2022-12-07T19:31:48.868Z,20.10
2022-12-07T19:34:17.481Z,20.10
2022-12-07T19:36:45.981Z,20.10
2022-12-07T19:39:15.356Z,20.00
2022-12-07T19:41:43.932Z,20.10
2022-12-07T19:44:23.462Z,20.00
2022-12-07T19:46:51.407Z,20.00
2022-12-07T19:49:19.850Z,19.90
2022-12-07T19:51:49.700Z,19.90
2022-12-07T19:54:19.585Z,19.90
2022-12-07T19:56:47.464Z,20.00
2022-12-07T19:59:15.670Z,20.00
2022-12-07T20:01:43.438Z,20.10
2022-12-07T20:04:13.293Z,20.20
2022-12-07T20:06:40.432Z,20.30
2022-12-07T20:09:07.315Z,20.30
2022-12-07T20:11:52.736Z,20.40
2022-12-07T20:14:19.528Z,20.50
2022-12-07T20:16:46.521Z,20.50
2022-12-07T20:19:14.601Z,20.60
2022-12-07T20:21:42.725Z,20.70
2022-12-07T20:24:12.847Z,20.80
2022-12-07T20:26:40.469Z,20.90
2022-12-07T20:29:13.295Z,20.90
2022-12-07T20:31:44.963Z,21.00
2022-12-07T20:34:11.954Z,21.10
2022-12-07T20:36:38.804Z,21.10
2022-12-07T20:39:06.351Z,21.10
2022-12-07T20:41:52.616Z,21.20
2022-12-07T20:44:19.471Z,21.20
2022-12-07T20:46:46.658Z,21.10
2022-12-07T20:49:16.675Z,21.10
2022-12-07T20:51:44.675Z,21.10
2022-12-07T20:54:12.597Z,21.10
2022-12-07T20:56:39.907Z,21.00
2022-12-07T20:59:09.752Z,21.00
2022-12-07T21:01:37.320Z,21.00
2022-12-07T21:04:04.196Z,20.90
2022-12-07T21:06:31.155Z,20.90
2022-12-07T21:09:00.494Z,20.80
2022-12-07T21:11:29.444Z,20.80
2022-12-07T21:13:56.224Z,20.70
2022-12-07T21:16:29.443Z,20.70
2022-12-07T21:19:00.011Z,20.60
2022-12-07T21:21:26.809Z,20.50
2022-12-07T21:24:01.520Z,20.50
2022-12-07T21:26:29.499Z,20.40
2022-12-07T21:28:57.316Z,20.40
2022-12-07T21:31:24.598Z,20.30
2022-12-07T21:33:51.560Z,20.20
2022-12-07T21:36:21.217Z,20.20
2022-12-07T21:38:48.772Z,20.10
2022-12-07T21:41:16.636Z,20.10
2022-12-07T21:43:43.932Z,20.00
2022-12-07T21:46:11.761Z,19.90
2022-12-07T21:48:39.291Z,19.90
2022-12-07T21:51:11.466Z,19.80
2022-12-07T21:53:40.593Z,19.70
2022-12-07T21:56:40.011Z,19.70
2022-12-07T21:59:10.515Z,19.60
2022-12-07T22:01:40.413Z,19.60
2022-12-07T22:04:08.841Z,19.50
2022-12-07T22:06:37.042Z,19.40
2022-12-07T22:09:04.873Z,19.40
2022-12-07T22:11:31.969Z,19.30
2022-12-07T22:14:17.330Z,19.30
2022-12-07T22:16:44.028Z,19.20
2022-12-07T22:19:10.719Z,19.20
2022-12-07T22:21:37.468Z,19.10
2022-12-07T22:24:13.751Z,19.00
2022-12-07T22:26:42.043Z,19.00
2022-12-07T22:29:09.370Z,18.90
2022-12-07T22:31:38.017Z,18.90
2022-12-07T22:34:04.842Z,18.90
2022-12-07T22:36:31.787Z,18.80
2022-12-07T22:39:00.273Z,18.80
2022-12-07T22:41:31.833Z,18.90
2022-12-07T22:43:59.926Z,18.90
2022-12-07T22:46:27.089Z,19.00
2022-12-07T22:48:54.305Z,19.00
2022-12-07T22:51:23.422Z,19.10
2022-12-07T22:53:51.477Z,19.10
2022-12-07T22:56:18.773Z,19.20
2022-12-07T22:58:45.957Z,19.20
2022-12-07T23:01:14.402Z,19.20
2022-12-07T23:03:41.446Z,19.20
2022-12-07T23:06:11.952Z,19.30
2022-12-07T23:08:38.638Z,19.40
2022-12-07T23:11:09.585Z,19.50
2022-12-07T23:13:37.989Z,19.60
2022-12-07T23:16:13.973Z,19.70
2022-12-07T23:18:42.363Z,19.70
2022-12-07T23:21:09.448Z,19.80
2022-12-07T23:23:36.163Z,19.90
2022-12-07T23:26:07.845Z,19.90
2022-12-07T23:28:35.267Z,19.90
2022-12-07T23:31:12.857Z,19.90
2022-12-07T23:33:40.492Z,19.90
2022-12-07T23:36:12.444Z,20.00
2022-12-07T23:38:40.252Z,19.90
2022-12-07T23:41:12.637Z,19.90
2022-12-07T23:43:40.162Z,19.90
2022-12-07T23:46:12.974Z,19.80
2022-12-07T23:48:39.848Z,19.80
2022-12-07T23:51:07.565Z,19.80
2022-12-07T23:53:35.684Z,19.80
2022-12-07T23:56:03.007Z,19.70
2022-12-07T23:58:29.753Z,19.70
